createdAt,value
2023-01-22T00:01:20.483Z,1.12
2023-01-22T00:03:58.406Z,1.13
2023-01-22T00:06:33.252Z,1.18
2023-01-22T00:09:24.487Z,1.22
2023-01-22T00:12:05.407Z,1.25
2023-01-22T00:14:55.464Z,1.28
2023-01-22T00:17:40.082Z,1.31
2023-01-22T00:21:19.739Z,1.33
2023-01-22T00:23:59.367Z,1.36
2023-01-22T00:26:44.306Z,1.36
2023-01-22T00:29:36.219Z,1.37
2023-01-22T00:32:08.382Z,1.39
2023-01-22T00:34:58.937Z,1.41
2023-01-22T00:38:31.232Z,1.44
2023-01-22T00:41:23.385Z,1.51
2023-01-22T00:44:35.132Z,1.55
2023-01-22T00:47:14.579Z,1.60
2023-01-22T00:50:03.499Z,1.62
2023-01-22T00:52:51.988Z,1.66
2023-01-22T00:56:00.341Z,1.74
2023-01-22T00:58:39.193Z,1.81
2023-01-22T01:01:24.233Z,1.87
2023-01-22T01:04:24.545Z,1.95
2023-01-22T01:07:44.557Z,2.00
2023-01-22T01:10:48.124Z,2.05
2023-01-22T01:13:37.440Z,2.11
2023-01-22T01:16:31.584Z,2.12
2023-01-22T01:19:22.552Z,2.15
2023-01-22T01:22:50.285Z,2.22
2023-01-22T01:26:14.648Z,2.27
2023-01-22T01:28:51.879Z,2.30
2023-01-22T01:31:32.489Z,2.33
2023-01-22T01:34:14.342Z,2.33
2023-01-22T01:37:05.737Z,2.34
2023-01-22T01:40:17.572Z,2.40
2023-01-22T01:45:52.628Z,2.50
2023-01-22T01:48:45.502Z,2.55
2023-01-22T01:51:29.123Z,2.57
2023-01-22T01:54:16.697Z,2.56
2023-01-22T01:57:11.956Z,2.58
2023-01-22T02:00:23.273Z,2.58
2023-01-22T02:03:05.727Z,2.62
2023-01-22T02:06:26.146Z,2.63
2023-01-22T02:09:43.589Z,2.65
2023-01-22T02:13:23.697Z,2.64
2023-01-22T02:16:38.980Z,2.62
2023-01-22T02:19:12.299Z,2.60
2023-01-22T02:21:59.417Z,2.60
2023-01-22T02:24:33.159Z,2.61
2023-01-22T02:27:51.903Z,2.61
2023-01-22T02:31:46.075Z,2.60
2023-01-22T02:35:15.998Z,2.60
2023-01-22T02:39:13.282Z,2.60
2023-01-22T02:42:20.096Z,2.63
2023-01-22T02:45:24.694Z,2.65
2023-01-22T02:48:03.291Z,2.64
2023-01-22T02:50:52.794Z,2.66
2023-01-22T02:53:47.695Z,2.67
2023-01-22T02:56:21.417Z,2.72
2023-01-22T03:01:51.178Z,2.74
2023-01-22T03:05:19.802Z,2.76
2023-01-22T03:08:21.503Z,2.75
2023-01-22T03:10:55.926Z,2.77
2023-01-22T03:14:05.474Z,2.82
2023-01-22T03:17:01.152Z,2.83
2023-01-22T03:20:02.459Z,2.85
2023-01-22T03:22:59.718Z,2.88
2023-01-22T03:42:02.794Z,3.26
2023-01-22T03:44:31.269Z,3.29
2023-01-22T03:46:59.548Z,3.27
2023-01-22T03:49:28.025Z,3.25
2023-01-22T03:51:57.475Z,3.20
2023-01-22T03:54:26.661Z,3.16
2023-01-22T03:56:56.290Z,3.12
2023-01-22T03:59:30.843Z,3.04
2023-01-22T04:01:59.382Z,3.00
2023-01-22T04:04:27.701Z,2.96
2023-01-22T04:06:56.618Z,2.92
2023-01-22T04:09:24.872Z,2.89
2023-01-22T04:11:53.023Z,2.87
2023-01-22T04:14:21.123Z,2.85
2023-01-22T04:16:57.212Z,2.80
2023-01-22T04:19:45.732Z,2.66
2023-01-22T04:22:33.941Z,2.57
2023-01-22T04:25:02.496Z,2.52
2023-01-22T04:27:37.936Z,2.50
2023-01-22T04:30:09.006Z,2.49
2023-01-22T04:32:38.197Z,2.48
2023-01-22T04:35:17.684Z,2.45
2023-01-22T04:37:51.103Z,2.43
2023-01-22T04:40:20.976Z,2.43
2023-01-22T04:42:51.125Z,2.48
2023-01-22T04:45:19.822Z,2.51
2023-01-22T04:47:49.103Z,2.50
2023-01-22T04:50:24.759Z,2.47
2023-01-22T04:52:57.276Z,2.48
2023-01-22T04:55:29.204Z,2.49
2023-01-22T04:58:03.083Z,2.51
2023-01-22T05:00:33.042Z,2.41
2023-01-22T05:03:04.721Z,2.39
2023-01-22T05:05:34.181Z,2.39
2023-01-22T05:08:02.809Z,2.41
2023-01-22T05:10:32.331Z,2.44
2023-01-22T05:13:04.244Z,2.46
2023-01-22T05:15:33.800Z,2.42
2023-01-22T05:18:08.077Z,2.48
2023-01-22T05:20:39.160Z,2.50
2023-01-22T05:23:08.752Z,2.51
2023-01-22T05:25:37.407Z,2.50
2023-01-22T05:28:07.250Z,2.50
2023-01-22T05:30:57.718Z,2.49
2023-01-22T05:33:41.260Z,2.47
2023-01-22T05:36:12.952Z,2.41
2023-01-22T05:38:41.323Z,2.35
2023-01-22T05:41:10.699Z,2.31
2023-01-22T05:43:40.397Z,2.28
2023-01-22T05:46:12.225Z,2.30
2023-01-22T05:48:43.401Z,2.33
2023-01-22T05:51:19.540Z,2.35
2023-01-22T05:53:48.249Z,2.37
2023-01-22T05:56:17.549Z,2.39
2023-01-22T05:58:45.932Z,2.41
2023-01-22T06:01:15.034Z,2.43
2023-01-22T06:03:47.048Z,2.45
2023-01-22T06:06:19.461Z,2.49
2023-01-22T06:08:51.419Z,2.53
2023-01-22T06:11:21.354Z,2.53
2023-01-22T06:13:51.058Z,2.58
2023-01-22T06:16:21.339Z,2.58
2023-01-22T06:19:10.612Z,2.59
2023-01-22T06:21:44.879Z,2.62
2023-01-22T06:24:13.589Z,2.66
2023-01-22T06:26:42.550Z,2.68
2023-01-22T06:29:13.868Z,2.58
2023-01-22T06:31:42.571Z,2.49
2023-01-22T06:34:11.114Z,2.40
2023-01-22T06:36:41.436Z,2.23
2023-01-22T06:39:10.941Z,2.18
2023-01-22T06:41:58.686Z,2.23
2023-01-22T06:44:26.935Z,2.28
2023-01-22T06:46:55.495Z,2.25
2023-01-22T06:49:28.437Z,2.26
2023-01-22T06:51:56.936Z,2.30
2023-01-22T06:54:25.079Z,2.35
2023-01-22T06:56:54.484Z,2.41
2023-01-22T06:59:23.948Z,2.48
2023-01-22T07:01:52.511Z,2.54
2023-01-22T07:04:21.007Z,2.64
2023-01-22T07:06:49.832Z,2.77
2023-01-22T07:09:18.636Z,2.88
2023-01-22T07:11:49.751Z,2.97
2023-01-22T07:14:28.920Z,3.04
2023-01-22T07:17:04.448Z,3.12
2023-01-22T07:19:32.665Z,3.20
2023-01-22T07:22:01.084Z,3.27
2023-01-22T07:24:30.904Z,3.33
2023-01-22T07:26:59.106Z,3.40
2023-01-22T07:29:28.175Z,3.47
2023-01-22T07:31:58.430Z,3.54
2023-01-22T07:34:26.996Z,3.62
2023-01-22T07:36:55.451Z,3.70
2023-01-22T07:39:24.094Z,3.78
2023-01-22T07:41:52.915Z,3.84
2023-01-22T07:44:21.322Z,3.89
2023-01-22T07:46:49.531Z,3.93
2023-01-22T07:49:17.922Z,3.95
2023-01-22T07:51:46.126Z,3.98
2023-01-22T07:54:15.069Z,4.01
2023-01-22T07:56:44.527Z,4.04
2023-01-22T07:59:12.778Z,4.09
2023-01-22T08:01:42.995Z,4.13
2023-01-22T08:04:11.058Z,4.18
2023-01-22T08:06:48.390Z,4.25
2023-01-22T08:09:24.795Z,4.32
2023-01-22T08:11:53.612Z,4.36
2023-01-22T08:14:22.793Z,4.43
2023-01-22T08:16:51.868Z,4.46
2023-01-22T08:19:19.980Z,4.45
2023-01-22T08:21:48.451Z,4.52
2023-01-22T08:24:17.811Z,4.65
2023-01-22T08:26:46.947Z,4.79
2023-01-22T08:29:16.934Z,4.93
2023-01-22T08:31:45.113Z,5.07
2023-01-22T08:34:14.755Z,5.16
2023-01-22T08:36:49.849Z,5.25
2023-01-22T08:39:23.271Z,5.36
2023-01-22T08:41:59.061Z,5.51
2023-01-22T08:44:27.370Z,5.65
2023-01-22T08:46:55.636Z,5.75
2023-01-22T08:49:23.915Z,5.79
2023-01-22T08:51:52.085Z,5.82
2023-01-22T08:54:20.253Z,5.86
2023-01-22T08:56:48.545Z,5.88
2023-01-22T08:59:17.646Z,5.93
2023-01-22T09:01:46.516Z,6.01
2023-01-22T09:04:15.011Z,6.14
2023-01-22T09:06:43.486Z,6.29
2023-01-22T09:09:12.885Z,6.42
2023-01-22T09:11:41.129Z,6.55
2023-01-22T09:14:11.021Z,6.68
2023-01-22T09:16:40.572Z,6.80
2023-01-22T09:19:08.817Z,6.91
2023-01-22T09:21:37.699Z,6.85
2023-01-22T09:24:07.483Z,6.82
2023-01-22T09:26:37.361Z,6.72
2023-01-22T09:29:06.011Z,6.74
2023-01-22T09:31:36.257Z,6.86
2023-01-22T09:34:05.390Z,7.02
2023-01-22T09:36:33.767Z,7.20
2023-01-22T09:39:02.102Z,7.26
2023-01-22T09:41:40.083Z,7.31
2023-01-22T09:44:20.416Z,7.38
2023-01-22T09:46:57.239Z,7.38
2023-01-22T09:49:36.509Z,7.36
2023-01-22T09:52:06.500Z,7.37
2023-01-22T09:54:34.712Z,7.44
2023-01-22T09:57:06.399Z,7.50
2023-01-22T09:59:52.774Z,7.56
2023-01-22T10:02:39.431Z,7.64
2023-01-22T10:05:28.507Z,7.71
2023-01-22T10:08:41.428Z,7.77
2023-01-22T10:11:19.674Z,7.84
2023-01-22T10:13:51.562Z,7.78
2023-01-22T10:16:19.848Z,7.66
2023-01-22T10:18:50.052Z,7.64
2023-01-22T10:21:30.867Z,7.66
2023-01-22T10:24:00.314Z,7.72
2023-01-22T10:26:38.419Z,7.84
2023-01-22T10:29:10.060Z,8.00
2023-01-22T10:31:45.703Z,8.18
2023-01-22T10:34:27.381Z,8.33
2023-01-22T10:36:56.440Z,8.50
2023-01-22T10:39:24.741Z,8.61
2023-01-22T10:42:01.619Z,8.70
2023-01-22T10:44:29.967Z,8.79
2023-01-22T10:47:18.590Z,8.88
2023-01-22T10:50:06.745Z,8.98
2023-01-22T10:52:45.061Z,9.03
2023-01-22T10:55:30.027Z,9.07
2023-01-22T10:58:05.654Z,9.11
2023-01-22T11:00:50.554Z,9.13
2023-01-22T11:03:23.648Z,9.14
2023-01-22T11:06:00.127Z,9.13
2023-01-22T11:08:58.152Z,9.11
2023-01-22T11:11:36.008Z,9.11
2023-01-22T11:14:40.331Z,9.12
2023-01-22T11:17:19.492Z,9.09
2023-01-22T11:20:07.744Z,9.08
2023-01-22T11:22:41.428Z,9.09
2023-01-22T11:25:12.045Z,9.12
2023-01-22T11:27:43.810Z,9.12
2023-01-22T11:30:33.839Z,9.12
2023-01-22T11:33:25.316Z,9.10
2023-01-22T11:36:24.690Z,9.07
2023-01-22T11:39:03.214Z,9.05
2023-01-22T11:41:40.722Z,9.05
2023-01-22T11:44:38.428Z,9.04
2023-01-22T11:47:35.960Z,9.01
2023-01-22T11:50:15.804Z,8.95
2023-01-22T11:53:02.408Z,8.90
2023-01-22T11:55:49.044Z,8.85
2023-01-22T11:58:51.165Z,8.80
2023-01-22T12:01:44.528Z,8.77
2023-01-22T12:04:34.523Z,8.74
2023-01-22T12:07:27.275Z,8.75
2023-01-22T12:10:13.536Z,8.77
2023-01-22T12:13:06.854Z,8.80
2023-01-22T12:15:53.501Z,8.82
2023-01-22T12:18:37.228Z,8.78
2023-01-22T12:21:23.273Z,8.72
2023-01-22T12:24:06.849Z,8.68
2023-01-22T12:26:46.803Z,8.65
2023-01-22T12:29:29.790Z,8.60
2023-01-22T12:32:09.346Z,8.51
2023-01-22T12:35:00.241Z,8.41
2023-01-22T12:37:42.461Z,8.31
2023-01-22T12:40:39.075Z,8.23
2023-01-22T12:43:08.337Z,8.20
2023-01-22T12:46:02.474Z,8.14
2023-01-22T12:48:39.481Z,8.11
2023-01-22T12:51:38.183Z,8.09
2023-01-22T12:54:29.262Z,8.00
2023-01-22T12:57:22.647Z,7.93
2023-01-22T12:59:53.276Z,7.92
2023-01-22T13:02:28.746Z,7.93
2023-01-22T13:05:10.755Z,7.92
2023-01-22T13:07:43.412Z,7.93
2023-01-22T13:10:24.800Z,7.97
2023-01-22T13:12:55.744Z,7.96
2023-01-22T13:15:35.686Z,7.95
2023-01-22T13:18:24.888Z,7.95
2023-01-22T13:21:04.410Z,7.96
2023-01-22T13:23:36.832Z,7.97
2023-01-22T13:26:05.455Z,7.94
2023-01-22T13:28:33.956Z,7.88
2023-01-22T13:31:07.719Z,7.86
2023-01-22T13:33:38.250Z,7.90
2023-01-22T13:36:11.107Z,7.95
2023-01-22T13:38:40.335Z,7.97
2023-01-22T13:41:25.643Z,8.01
2023-01-22T13:43:54.241Z,8.04
2023-01-22T13:46:22.607Z,8.05
2023-01-22T13:49:01.306Z,8.07
2023-01-22T13:51:32.766Z,8.09
2023-01-22T13:54:06.154Z,8.13
2023-01-22T13:56:34.806Z,8.12
2023-01-22T13:59:24.798Z,8.09
2023-01-22T14:01:53.598Z,8.07
2023-01-22T14:04:37.474Z,8.07
2023-01-22T14:07:06.860Z,8.05
2023-01-22T14:09:40.627Z,8.04
2023-01-22T14:12:16.678Z,8.04
2023-01-22T14:14:46.413Z,8.01
2023-01-22T14:17:28.991Z,7.97
2023-01-22T14:20:01.213Z,7.94
2023-01-22T14:22:33.264Z,7.95
2023-01-22T14:25:01.647Z,7.91
2023-01-22T14:27:49.642Z,7.86
2023-01-22T14:30:20.980Z,7.85
2023-01-22T14:32:50.095Z,7.83
2023-01-22T14:35:22.306Z,7.80
2023-01-22T14:37:52.389Z,7.78
2023-01-22T14:40:25.960Z,7.73
2023-01-22T14:42:54.594Z,7.69
2023-01-22T14:45:22.866Z,7.65
2023-01-22T14:47:53.314Z,7.60
2023-01-22T14:50:22.636Z,7.58
2023-01-22T14:52:51.961Z,7.52
2023-01-22T14:55:20.329Z,7.48
2023-01-22T14:57:49.221Z,7.46
2023-01-22T15:00:19.596Z,7.44
2023-01-22T15:02:48.255Z,7.42
2023-01-22T15:05:16.983Z,7.41
2023-01-22T15:07:45.493Z,7.40
2023-01-22T15:10:13.864Z,7.38
2023-01-22T15:12:51.562Z,7.35
2023-01-22T15:15:23.321Z,7.32
2023-01-22T15:17:52.223Z,7.29
2023-01-22T15:20:21.793Z,7.25
2023-01-22T15:22:51.303Z,7.20
2023-01-22T15:25:19.982Z,7.17
2023-01-22T15:27:52.085Z,7.14
2023-01-22T15:30:20.666Z,7.14
2023-01-22T15:32:49.150Z,7.14
2023-01-22T15:35:17.648Z,7.13
2023-01-22T15:37:47.645Z,7.08
2023-01-22T15:40:16.567Z,7.03
2023-01-22T15:42:44.988Z,7.00
2023-01-22T15:45:13.520Z,6.96
2023-01-22T15:47:41.874Z,6.94
2023-01-22T15:50:10.904Z,6.92
2023-01-22T15:52:39.277Z,6.91
2023-01-22T15:55:08.218Z,6.90
2023-01-22T15:57:37.580Z,6.88
2023-01-22T16:00:07.788Z,6.90
2023-01-22T16:02:40.344Z,6.92
2023-01-22T16:05:09.203Z,6.93
2023-01-22T16:07:37.396Z,6.90
2023-01-22T16:10:06.134Z,6.86
2023-01-22T16:12:34.995Z,6.83
2023-01-22T16:15:03.850Z,6.81
2023-01-22T16:17:32.635Z,6.81
2023-01-22T16:20:00.767Z,6.78
2023-01-22T16:22:29.060Z,6.76
2023-01-22T16:24:58.284Z,6.75
2023-01-22T16:27:26.697Z,6.75
2023-01-22T16:29:56.177Z,6.74
2023-01-22T16:32:25.678Z,6.72
2023-01-22T16:34:54.372Z,6.71
2023-01-22T16:37:22.979Z,6.69
2023-01-22T16:39:51.668Z,6.68
2023-01-22T16:42:19.846Z,6.67
2023-01-22T16:44:48.229Z,6.66
2023-01-22T16:47:17.124Z,6.67
2023-01-22T16:49:45.256Z,6.67
2023-01-22T16:52:22.404Z,6.67
2023-01-22T16:54:54.364Z,6.67
2023-01-22T16:57:23.211Z,6.66
2023-01-22T16:59:51.469Z,6.65
2023-01-22T17:02:19.825Z,6.64
2023-01-22T17:04:49.319Z,6.63
2023-01-22T17:07:32.903Z,6.62
2023-01-22T17:10:12.233Z,6.65
2023-01-22T17:12:43.004Z,6.69
2023-01-22T17:15:11.445Z,6.71
2023-01-22T17:17:39.997Z,6.71
2023-01-22T17:20:10.324Z,6.71
2023-01-22T17:22:38.879Z,6.72
2023-01-22T17:25:08.417Z,6.72
2023-01-22T17:27:36.731Z,6.72
2023-01-22T17:30:07.557Z,6.69
2023-01-22T17:32:36.362Z,6.66
2023-01-22T17:35:18.814Z,6.66
2023-01-22T17:37:47.968Z,6.69
2023-01-22T17:40:16.504Z,6.69
2023-01-22T17:42:44.959Z,6.69
2023-01-22T17:45:15.893Z,6.69
2023-01-22T17:48:25.569Z,6.69
2023-01-22T17:50:56.836Z,6.70
2023-01-22T17:53:39.139Z,6.70
2023-01-22T17:57:05.270Z,6.70
2023-01-22T18:00:04.054Z,6.69
2023-01-22T18:02:36.614Z,6.68
2023-01-22T18:05:10.462Z,6.65
2023-01-22T18:07:39.172Z,6.61
2023-01-22T18:10:27.885Z,6.60
2023-01-22T18:13:08.508Z,6.56
2023-01-22T18:15:36.905Z,6.51
2023-01-22T18:18:05.238Z,6.48
2023-01-22T18:20:33.653Z,6.41
2023-01-22T18:23:17.552Z,6.31
2023-01-22T18:25:50.553Z,6.25
2023-01-22T18:28:20.790Z,6.15
2023-01-22T18:30:51.530Z,6.07
2023-01-22T18:33:21.421Z,5.99
2023-01-22T18:35:53.658Z,5.95
2023-01-22T18:38:28.593Z,5.93
2023-01-22T18:41:03.577Z,5.91
2023-01-22T18:43:32.710Z,5.88
2023-01-22T18:46:06.203Z,5.85
2023-01-22T18:48:36.134Z,5.85
2023-01-22T18:51:06.092Z,5.86
2023-01-22T18:53:35.689Z,5.85
2023-01-22T18:56:07.009Z,5.82
2023-01-22T18:58:57.784Z,5.84
2023-01-22T19:01:33.559Z,5.91
2023-01-22T19:04:10.740Z,5.93
2023-01-22T19:07:07.162Z,5.97
2023-01-22T19:09:54.784Z,6.06
2023-01-22T19:12:36.600Z,6.14
2023-01-22T19:15:07.360Z,6.15
2023-01-22T19:17:49.689Z,6.16
2023-01-22T19:20:22.607Z,6.21
2023-01-22T19:23:01.218Z,6.26
2023-01-22T19:25:33.076Z,6.28
2023-01-22T19:28:11.643Z,6.30
2023-01-22T19:30:39.948Z,6.33
2023-01-22T19:33:32.278Z,6.33
2023-01-22T19:36:08.105Z,6.34
2023-01-22T19:38:48.931Z,6.34
2023-01-22T19:41:26.252Z,6.34
2023-01-22T19:44:13.966Z,6.34
2023-01-22T19:49:32.518Z,6.29
2023-01-22T19:52:09.761Z,6.24
2023-01-22T19:54:48.974Z,6.20
2023-01-22T19:57:31.157Z,6.17
2023-01-22T20:00:16.942Z,6.17
2023-01-22T20:02:54.623Z,6.18
2023-01-22T20:05:48.901Z,6.17
2023-01-22T20:09:01.239Z,6.14
2023-01-22T20:11:46.144Z,6.09
2023-01-22T20:14:57.048Z,6.02
2023-01-22T20:17:39.312Z,5.96
2023-01-22T20:20:10.976Z,5.89
2023-01-22T20:26:05.913Z,5.78
2023-01-22T20:29:01.610Z,5.74
2023-01-22T20:32:12.617Z,5.66
2023-01-22T20:38:43.007Z,5.49
2023-01-22T20:44:32.264Z,5.33
2023-01-22T20:50:11.853Z,5.23
2023-01-22T20:52:42.754Z,5.19
2023-01-22T20:55:17.318Z,5.13
2023-01-22T20:57:49.441Z,5.10
2023-01-22T21:00:27.205Z,5.10
2023-01-22T21:05:58.021Z,5.11
2023-01-22T21:08:36.259Z,5.06
2023-01-22T21:11:19.856Z,4.99
2023-01-22T21:14:13.034Z,4.91
2023-01-22T21:19:56.337Z,4.82
2023-01-22T21:22:35.507Z,4.78
2023-01-22T21:25:06.550Z,4.76
2023-01-22T21:27:51.260Z,4.72
2023-01-22T21:30:26.346Z,4.68
2023-01-22T21:32:54.765Z,4.64
2023-01-22T21:35:41.128Z,4.64
2023-01-22T21:38:53.566Z,4.65
2023-01-22T21:41:22.922Z,4.60
2023-01-22T21:44:41.236Z,4.57
2023-01-22T21:47:11.172Z,4.60
2023-01-22T21:49:39.419Z,4.59
2023-01-22T21:52:10.261Z,4.57
2023-01-22T21:54:43.183Z,4.59
2023-01-22T21:57:21.623Z,4.62
2023-01-22T21:59:50.035Z,4.61
2023-01-22T22:02:22.904Z,4.60
2023-01-22T22:05:11.529Z,4.58
2023-01-22T22:07:44.340Z,4.58
2023-01-22T22:10:15.331Z,4.58
2023-01-22T22:12:48.449Z,4.62
2023-01-22T22:15:19.422Z,4.66
2023-01-22T22:17:52.640Z,4.69
2023-01-22T22:20:23.839Z,4.64
2023-01-22T22:22:53.205Z,4.60
2023-01-22T22:25:24.778Z,4.51
2023-01-22T22:27:55.235Z,4.34
2023-01-22T22:30:29.726Z,4.22
2023-01-22T22:32:59.098Z,4.13
2023-01-22T22:35:31.239Z,4.02
2023-01-22T22:38:01.907Z,3.91
2023-01-22T22:40:31.400Z,3.85
2023-01-22T22:42:59.963Z,3.83
2023-01-22T22:45:40.150Z,3.81
2023-01-22T22:48:18.802Z,3.77
2023-01-22T22:50:47.585Z,3.73
2023-01-22T22:53:17.322Z,3.71
2023-01-22T22:55:52.860Z,3.67
2023-01-22T22:58:21.904Z,3.64
2023-01-22T23:01:09.461Z,3.65
2023-01-22T23:03:41.315Z,3.68
2023-01-22T23:06:22.522Z,3.66
2023-01-22T23:08:54.363Z,3.64
2023-01-22T23:11:50.584Z,3.60
2023-01-22T23:17:05.242Z,3.63
2023-01-22T23:19:43.073Z,3.60
2023-01-22T23:22:23.742Z,3.52
2023-01-22T23:24:53.769Z,3.50
2023-01-22T23:27:29.171Z,3.49
2023-01-22T23:30:10.239Z,3.51
2023-01-22T23:32:42.762Z,3.53
2023-01-22T23:35:40.172Z,3.56
2023-01-22T23:38:26.227Z,3.59
2023-01-22T23:41:09.509Z,3.61
2023-01-22T23:44:07.107Z,3.64
2023-01-22T23:46:47.120Z,3.66
2023-01-22T23:49:20.311Z,3.66
2023-01-22T23:51:50.907Z,3.68
2023-01-22T23:54:22.660Z,3.65
2023-01-22T23:57:02.318Z,3.60
